sensor_id;sensor_type;location;lat;lon;timestamp;P1;durP1;ratioP1;P2;durP2;ratioP2
40058;SDS011;25763;49.972;8.568;2022-07-04T00:01:58;16.67;;;15.73;;
40058;SDS011;25763;49.972;8.568;2022-07-04T00:04:23;15.98;;;15.07;;
40058;SDS011;25763;49.972;8.568;2022-07-04T00:06:49;15.25;;;14.35;;
40058;SDS011;25763;49.972;8.568;2022-07-04T00:09:14;17.80;;;16.80;;
40058;SDS011;25763;49.972;8.568;2022-07-04T00:11:39;16.42;;;15.52;;
40058;SDS011;25763;49.972;8.568;2022-07-04T00:14:05;18.95;;;17.92;;
40058;SDS011;25763;49.972;8.568;2022-07-04T00:16:30;17.50;;;16.50;;
40058;SDS011;25763;49.972;8.568;2022-07-04T00:18:55;16.00;;;15.10;;
40058;SDS011;25763;49.972;8.568;2022-07-04T00:21:21;17.80;;;16.80;;
40058;SDS011;25763;49.972;8.568;2022-07-04T00:23:46;16.98;;;16.05;;
40058;SDS011;25763;49.972;8.568;2022-07-04T00:26:11;14.77;;;13.98;;
40058;SDS011;25763;49.972;8.568;2022-07-04T00:28:37;19.10;;;18.10;;
40058;SDS011;25763;49.972;8.568;2022-07-04T00:31:02;17.73;;;16.73;;
40058;SDS011;25763;49.972;8.568;2022-07-04T00:33:28;20.50;;;19.40;;
40058;SDS011;25763;49.972;8.568;2022-07-04T00:35:53;21.23;;;20.02;;
40058;SDS011;25763;49.972;8.568;2022-07-04T00:38:18;22.88;;;21.67;;
40058;SDS011;25763;49.972;8.568;2022-07-04T00:40:44;23.60;;;22.30;;
40058;SDS011;25763;49.972;8.568;2022-07-04T00:43:09;22.48;;;21.27;;
40058;SDS011;25763;49.972;8.568;2022-07-04T00:45:34;26.60;;;25.20;;
40058;SDS011;25763;49.972;8.568;2022-07-04T00:48:00;23.77;;;22.48;;
40058;SDS011;25763;49.972;8.568;2022-07-04T00:50:25;24.55;;;23.25;;
40058;SDS011;25763;49.972;8.568;2022-07-04T00:52:52;25.35;;;24.05;;
40058;SDS011;25763;49.972;8.568;2022-07-04T00:55:18;25.20;;;23.80;;
40058;SDS011;25763;49.972;8.568;2022-07-04T00:57:44;26.67;;;25.27;;
40058;SDS011;25763;49.972;8.568;2022-07-04T01:00:10;27.15;;;25.75;;
40058;SDS011;25763;49.972;8.568;2022-07-04T01:02:36;26.05;;;24.67;;
40058;SDS011;25763;49.972;8.568;2022-07-04T01:05:01;25.45;;;24.13;;
40058;SDS011;25763;49.972;8.568;2022-07-04T01:07:26;26.40;;;25.00;;
40058;SDS011;25763;49.972;8.568;2022-07-04T01:09:52;25.38;;;24.00;;
40058;SDS011;25763;49.972;8.568;2022-07-04T01:12:25;29.88;;;28.27;;
40058;SDS011;25763;49.972;8.568;2022-07-04T01:14:51;28.25;;;26.75;;
40058;SDS011;25763;49.972;8.568;2022-07-04T01:17:17;26.48;;;25.08;;
40058;SDS011;25763;49.972;8.568;2022-07-04T01:19:42;24.75;;;23.45;;
40058;SDS011;25763;49.972;8.568;2022-07-04T01:22:07;22.95;;;21.75;;
40058;SDS011;25763;49.972;8.568;2022-07-04T01:24:33;20.35;;;19.25;;
40058;SDS011;25763;49.972;8.568;2022-07-04T01:26:59;21.95;;;20.75;;
40058;SDS011;25763;49.972;8.568;2022-07-04T01:29:24;18.88;;;17.85;;
40058;SDS011;25763;49.972;8.568;2022-07-04T01:31:49;17.45;;;16.45;;
40058;SDS011;25763;49.972;8.568;2022-07-04T01:34:15;17.55;;;16.55;;
40058;SDS011;25763;49.972;8.568;2022-07-04T01:36:40;17.83;;;16.83;;
40058;SDS011;25763;49.972;8.568;2022-07-04T01:39:05;16.52;;;15.63;;
40058;SDS011;25763;49.972;8.568;2022-07-04T01:41:34;14.48;;;13.68;;
40058;SDS011;25763;49.972;8.568;2022-07-04T01:44:00;15.93;;;15.02;;
40058;SDS011;25763;49.972;8.568;2022-07-04T01:46:26;13.85;;;13.05;;
40058;SDS011;25763;49.972;8.568;2022-07-04T01:48:51;14.68;;;13.88;;
40058;SDS011;25763;49.972;8.568;2022-07-04T01:51:17;14.63;;;13.82;;
40058;SDS011;25763;49.972;8.568;2022-07-04T01:53:42;14.85;;;14.05;;
40058;SDS011;25763;49.972;8.568;2022-07-04T01:56:07;15.35;;;14.45;;
40058;SDS011;25763;49.972;8.568;2022-07-04T01:58:33;15.77;;;14.88;;
40058;SDS011;25763;49.972;8.568;2022-07-04T02:00:58;17.13;;;16.15;;
40058;SDS011;25763;49.972;8.568;2022-07-04T02:03:43;14.95;;;14.07;;
40058;SDS011;25763;49.972;8.568;2022-07-04T02:06:08;17.85;;;16.85;;
40058;SDS011;25763;49.972;8.568;2022-07-04T02:08:33;19.70;;;18.60;;
40058;SDS011;25763;49.972;8.568;2022-07-04T02:11:18;17.90;;;16.90;;
40058;SDS011;25763;49.972;8.568;2022-07-04T02:13:43;22.45;;;21.25;;
40058;SDS011;25763;49.972;8.568;2022-07-04T02:16:08;22.98;;;21.77;;
40058;SDS011;25763;49.972;8.568;2022-07-04T02:18:34;20.17;;;19.08;;
40058;SDS011;25763;49.972;8.568;2022-07-04T02:20:59;20.40;;;19.30;;
40058;SDS011;25763;49.972;8.568;2022-07-04T02:23:24;21.20;;;20.00;;
40058;SDS011;25763;49.972;8.568;2022-07-04T02:25:50;19.27;;;18.23;;
40058;SDS011;25763;49.972;8.568;2022-07-04T02:28:15;17.08;;;16.13;;
40058;SDS011;25763;49.972;8.568;2022-07-04T02:30:41;17.92;;;16.92;;
40058;SDS011;25763;49.972;8.568;2022-07-04T02:33:06;16.77;;;15.85;;
40058;SDS011;25763;49.972;8.568;2022-07-04T02:35:31;15.27;;;14.38;;
40058;SDS011;25763;49.972;8.568;2022-07-04T02:37:57;14.82;;;14.02;;
40058;SDS011;25763;49.972;8.568;2022-07-04T02:40:22;15.13;;;14.23;;
40058;SDS011;25763;49.972;8.568;2022-07-04T02:42:47;14.30;;;13.50;;
40058;SDS011;25763;49.972;8.568;2022-07-04T02:45:13;14.75;;;13.95;;
40058;SDS011;25763;49.972;8.568;2022-07-04T02:47:38;12.63;;;11.90;;
40058;SDS011;25763;49.972;8.568;2022-07-04T02:50:04;13.27;;;12.48;;
40058;SDS011;25763;49.972;8.568;2022-07-04T02:52:31;13.98;;;12.93;;
40058;SDS011;25763;49.972;8.568;2022-07-04T02:54:56;11.57;;;10.88;;
40058;SDS011;25763;49.972;8.568;2022-07-04T02:57:22;10.50;;;9.90;;
40058;SDS011;25763;49.972;8.568;2022-07-04T02:59:47;10.25;;;9.65;;
40058;SDS011;25763;49.972;8.568;2022-07-04T03:02:13;11.40;;;10.70;;
40058;SDS011;25763;49.972;8.568;2022-07-04T03:04:39;10.52;;;9.85;;
40058;SDS011;25763;49.972;8.568;2022-07-04T03:07:05;10.07;;;9.45;;
40058;SDS011;25763;49.972;8.568;2022-07-04T03:09:32;9.30;;;8.70;;
40058;SDS011;25763;49.972;8.568;2022-07-04T03:11:57;10.98;;;10.27;;
40058;SDS011;25763;49.972;8.568;2022-07-04T03:14:23;11.70;;;10.98;;
40058;SDS011;25763;49.972;8.568;2022-07-04T03:16:48;11.07;;;10.40;;
40058;SDS011;25763;49.972;8.568;2022-07-04T03:19:13;9.88;;;9.27;;
40058;SDS011;25763;49.972;8.568;2022-07-04T03:21:39;12.68;;;11.98;;
40058;SDS011;25763;49.972;8.568;2022-07-04T03:24:04;12.20;;;11.40;;
40058;SDS011;25763;49.972;8.568;2022-07-04T03:26:30;11.65;;;10.95;;
40058;SDS011;25763;49.972;8.568;2022-07-04T03:28:58;12.55;;;11.82;;
40058;SDS011;25763;49.972;8.568;2022-07-04T03:31:24;12.68;;;11.98;;
40058;SDS011;25763;49.972;8.568;2022-07-04T03:33:50;13.45;;;12.65;;
40058;SDS011;25763;49.972;8.568;2022-07-04T03:36:16;13.70;;;12.90;;
40058;SDS011;25763;49.972;8.568;2022-07-04T03:38:45;14.63;;;13.82;;
40058;SDS011;25763;49.972;8.568;2022-07-04T03:41:10;14.80;;;13.55;;
40058;SDS011;25763;49.972;8.568;2022-07-04T03:43:36;14.68;;;13.88;;
40058;SDS011;25763;49.972;8.568;2022-07-04T03:46:02;12.05;;;11.35;;
40058;SDS011;25763;49.972;8.568;2022-07-04T03:48:27;13.35;;;12.55;;
40058;SDS011;25763;49.972;8.568;2022-07-04T03:50:53;11.85;;;11.15;;
40058;SDS011;25763;49.972;8.568;2022-07-04T03:53:18;12.23;;;11.52;;
40058;SDS011;25763;49.972;8.568;2022-07-04T03:55:44;10.75;;;10.13;;
40058;SDS011;25763;49.972;8.568;2022-07-04T03:58:10;11.38;;;10.68;;
40058;SDS011;25763;49.972;8.568;2022-07-04T04:00:36;11.75;;;11.05;;
40058;SDS011;25763;49.972;8.568;2022-07-04T04:03:01;10.68;;;10.07;;
40058;SDS011;25763;49.972;8.568;2022-07-04T04:05:26;10.65;;;9.95;;
40058;SDS011;25763;49.972;8.568;2022-07-04T04:07:55;9.77;;;9.18;;
40058;SDS011;25763;49.972;8.568;2022-07-04T04:10:22;10.18;;;9.55;;
40058;SDS011;25763;49.972;8.568;2022-07-04T04:12:48;9.88;;;9.27;;
40058;SDS011;25763;49.972;8.568;2022-07-04T04:15:13;10.48;;;9.82;;
40058;SDS011;25763;49.972;8.568;2022-07-04T04:17:38;9.10;;;8.50;;
40058;SDS011;25763;49.972;8.568;2022-07-04T04:20:04;8.32;;;7.72;;
40058;SDS011;25763;49.972;8.568;2022-07-04T04:22:30;8.18;;;7.68;;
40058;SDS011;25763;49.972;8.568;2022-07-04T04:24:56;8.13;;;7.63;;
40058;SDS011;25763;49.972;8.568;2022-07-04T04:27:22;8.20;;;7.70;;
40058;SDS011;25763;49.972;8.568;2022-07-04T04:29:48;9.15;;;8.57;;
40058;SDS011;25763;49.972;8.568;2022-07-04T04:32:13;9.38;;;8.77;;
40058;SDS011;25763;49.972;8.568;2022-07-04T04:34:38;9.02;;;8.43;;
40058;SDS011;25763;49.972;8.568;2022-07-04T04:37:04;9.93;;;9.32;;
40058;SDS011;25763;49.972;8.568;2022-07-04T04:39:29;9.52;;;8.93;;
40058;SDS011;25763;49.972;8.568;2022-07-04T04:41:55;8.73;;;8.13;;
40058;SDS011;25763;49.972;8.568;2022-07-04T04:44:20;9.50;;;8.90;;
40058;SDS011;25763;49.972;8.568;2022-07-04T04:46:45;10.38;;;9.77;;
40058;SDS011;25763;49.972;8.568;2022-07-04T04:49:11;11.80;;;11.10;;
40058;SDS011;25763;49.972;8.568;2022-07-04T04:51:37;12.05;;;11.35;;
40058;SDS011;25763;49.972;8.568;2022-07-04T04:54:03;12.70;;;11.93;;
40058;SDS011;25763;49.972;8.568;2022-07-04T04:56:28;12.45;;;11.75;;
40058;SDS011;25763;49.972;8.568;2022-07-04T04:58:54;13.40;;;12.60;;
40058;SDS011;25763;49.972;8.568;2022-07-04T05:01:19;12.68;;;11.95;;
40058;SDS011;25763;49.972;8.568;2022-07-04T05:03:44;13.30;;;12.50;;
40058;SDS011;25763;49.972;8.568;2022-07-04T05:06:10;12.00;;;11.30;;
40058;SDS011;25763;49.972;8.568;2022-07-04T05:08:35;12.32;;;11.63;;
40058;SDS011;25763;49.972;8.568;2022-07-04T05:11:01;12.88;;;12.13;;
40058;SDS011;25763;49.972;8.568;2022-07-04T05:13:26;13.13;;;12.35;;
40058;SDS011;25763;49.972;8.568;2022-07-04T05:15:51;12.40;;;11.60;;
40058;SDS011;25763;49.972;8.568;2022-07-04T05:18:17;11.73;;;11.02;;
40058;SDS011;25763;49.972;8.568;2022-07-04T05:20:42;11.30;;;10.60;;
40058;SDS011;25763;49.972;8.568;2022-07-04T05:23:07;11.02;;;10.32;;
40058;SDS011;25763;49.972;8.568;2022-07-04T05:25:33;10.75;;;10.10;;
40058;SDS011;25763;49.972;8.568;2022-07-04T05:27:58;11.10;;;10.40;;
40058;SDS011;25763;49.972;8.568;2022-07-04T05:30:24;10.32;;;9.73;;
40058;SDS011;25763;49.972;8.568;2022-07-04T05:32:50;11.75;;;11.05;;
40058;SDS011;25763;49.972;8.568;2022-07-04T05:35:15;11.68;;;10.98;;
40058;SDS011;25763;49.972;8.568;2022-07-04T05:37:41;13.70;;;12.90;;
40058;SDS011;25763;49.972;8.568;2022-07-04T05:40:06;12.52;;;11.82;;
40058;SDS011;25763;49.972;8.568;2022-07-04T05:42:36;13.43;;;12.63;;
40058;SDS011;25763;49.972;8.568;2022-07-04T05:45:02;13.27;;;12.48;;
40058;SDS011;25763;49.972;8.568;2022-07-04T05:47:28;12.85;;;12.13;;
40058;SDS011;25763;49.972;8.568;2022-07-04T05:49:53;13.48;;;12.68;;
40058;SDS011;25763;49.972;8.568;2022-07-04T05:52:19;15.70;;;14.80;;
40058;SDS011;25763;49.972;8.568;2022-07-04T05:54:44;13.82;;;13.02;;
40058;SDS011;25763;49.972;8.568;2022-07-04T05:57:09;14.75;;;13.93;;
40058;SDS011;25763;49.972;8.568;2022-07-04T05:59:35;13.77;;;12.55;;
40058;SDS011;25763;49.972;8.568;2022-07-04T06:02:01;13.38;;;12.57;;
40058;SDS011;25763;49.972;8.568;2022-07-04T06:04:26;13.88;;;12.35;;
40058;SDS011;25763;49.972;8.568;2022-07-04T06:06:52;13.60;;;12.80;;
40058;SDS011;25763;49.972;8.568;2022-07-04T06:09:17;14.63;;;13.18;;
40058;SDS011;25763;49.972;8.568;2022-07-04T06:11:43;11.50;;;10.80;;
40058;SDS011;25763;49.972;8.568;2022-07-04T06:14:08;12.60;;;11.90;;
40058;SDS011;25763;49.972;8.568;2022-07-04T06:16:34;12.30;;;11.60;;
40058;SDS011;25763;49.972;8.568;2022-07-04T06:18:59;13.40;;;12.63;;
40058;SDS011;25763;49.972;8.568;2022-07-04T06:21:25;12.80;;;11.90;;
40058;SDS011;25763;49.972;8.568;2022-07-04T06:23:50;11.70;;;11.00;;
40058;SDS011;25763;49.972;8.568;2022-07-04T06:26:15;12.63;;;11.93;;
40058;SDS011;25763;49.972;8.568;2022-07-04T06:28:41;13.75;;;12.95;;
40058;SDS011;25763;49.972;8.568;2022-07-04T06:31:06;13.45;;;12.65;;
40058;SDS011;25763;49.972;8.568;2022-07-04T06:33:31;12.95;;;12.18;;
40058;SDS011;25763;49.972;8.568;2022-07-04T06:35:57;15.32;;;14.38;;
40058;SDS011;25763;49.972;8.568;2022-07-04T06:38:25;16.95;;;16.02;;
40058;SDS011;25763;49.972;8.568;2022-07-04T06:40:55;23.30;;;21.98;;
40058;SDS011;25763;49.972;8.568;2022-07-04T06:43:23;23.95;;;22.70;;
40058;SDS011;25763;49.972;8.568;2022-07-04T06:45:50;26.00;;;24.63;;
40058;SDS011;25763;49.972;8.568;2022-07-04T06:48:16;27.90;;;26.45;;
40058;SDS011;25763;49.972;8.568;2022-07-04T06:50:41;34.03;;;32.28;;
40058;SDS011;25763;49.972;8.568;2022-07-04T06:53:07;31.27;;;29.67;;
40058;SDS011;25763;49.972;8.568;2022-07-04T06:55:33;28.08;;;26.58;;
40058;SDS011;25763;49.972;8.568;2022-07-04T06:57:58;30.38;;;28.77;;
40058;SDS011;25763;49.972;8.568;2022-07-04T07:00:24;30.98;;;29.38;;
40058;SDS011;25763;49.972;8.568;2022-07-04T07:02:50;37.92;;;35.97;;
40058;SDS011;25763;49.972;8.568;2022-07-04T07:05:15;35.05;;;33.25;;
40058;SDS011;25763;49.972;8.568;2022-07-04T07:07:41;39.10;;;37.10;;
40058;SDS011;25763;49.972;8.568;2022-07-04T07:10:06;30.38;;;28.67;;
40058;SDS011;25763;49.972;8.568;2022-07-04T07:12:32;30.17;;;28.58;;
40058;SDS011;25763;49.972;8.568;2022-07-04T07:14:58;44.15;;;41.90;;
40058;SDS011;25763;49.972;8.568;2022-07-04T07:17:24;32.58;;;30.30;;
40058;SDS011;25763;49.972;8.568;2022-07-04T07:19:49;36.92;;;34.75;;
40058;SDS011;25763;49.972;8.568;2022-07-04T07:22:15;33.97;;;32.20;;
40058;SDS011;25763;49.972;8.568;2022-07-04T07:24:40;39.97;;;37.92;;
40058;SDS011;25763;49.972;8.568;2022-07-04T07:27:06;31.48;;;29.77;;
40058;SDS011;25763;49.972;8.568;2022-07-04T07:29:33;37.58;;;35.63;;
40058;SDS011;25763;49.972;8.568;2022-07-04T07:32:00;29.77;;;28.23;;
40058;SDS011;25763;49.972;8.568;2022-07-04T07:34:25;31.10;;;29.45;;
40058;SDS011;25763;49.972;8.568;2022-07-04T07:36:50;29.10;;;27.60;;
40058;SDS011;25763;49.972;8.568;2022-07-04T07:39:16;35.05;;;33.15;;
40058;SDS011;25763;49.972;8.568;2022-07-04T07:41:41;40.13;;;38.05;;
40058;SDS011;25763;49.972;8.568;2022-07-04T07:44:07;36.55;;;34.65;;
40058;SDS011;25763;49.972;8.568;2022-07-04T07:46:33;37.83;;;35.92;;
40058;SDS011;25763;49.972;8.568;2022-07-04T07:48:58;42.13;;;40.00;;
40058;SDS011;25763;49.972;8.568;2022-07-04T07:51:24;37.42;;;35.53;;
40058;SDS011;25763;49.972;8.568;2022-07-04T07:53:50;37.78;;;35.85;;
40058;SDS011;25763;49.972;8.568;2022-07-04T07:56:15;39.70;;;37.67;;
40058;SDS011;25763;49.972;8.568;2022-07-04T07:58:41;40.50;;;38.45;;
40058;SDS011;25763;49.972;8.568;2022-07-04T08:01:06;30.15;;;28.55;;
40058;SDS011;25763;49.972;8.568;2022-07-04T08:03:32;33.53;;;31.83;;
40058;SDS011;25763;49.972;8.568;2022-07-04T08:06:15;33.42;;;31.73;;
40058;SDS011;25763;49.972;8.568;2022-07-04T08:08:41;43.65;;;41.45;;
40058;SDS011;25763;49.972;8.568;2022-07-04T08:11:07;43.97;;;41.75;;
40058;SDS011;25763;49.972;8.568;2022-07-04T08:13:34;33.08;;;31.20;;
40058;SDS011;25763;49.972;8.568;2022-07-04T08:16:00;64.78;;;61.58;;
40058;SDS011;25763;49.972;8.568;2022-07-04T08:18:25;58.35;;;55.42;;
40058;SDS011;25763;49.972;8.568;2022-07-04T08:20:51;85.45;;;81.28;;
40058;SDS011;25763;49.972;8.568;2022-07-04T08:23:16;82.32;;;78.28;;
40058;SDS011;25763;49.972;8.568;2022-07-04T08:25:42;91.63;;;87.13;;
40058;SDS011;25763;49.972;8.568;2022-07-04T08:28:07;67.68;;;64.28;;
40058;SDS011;25763;49.972;8.568;2022-07-04T08:30:33;90.93;;;86.43;;
40058;SDS011;25763;49.972;8.568;2022-07-04T08:32:58;96.90;;;92.18;;
40058;SDS011;25763;49.972;8.568;2022-07-04T08:35:24;84.80;;;80.63;;
40058;SDS011;25763;49.972;8.568;2022-07-04T08:37:50;85.47;;;81.28;;
40058;SDS011;25763;49.972;8.568;2022-07-04T08:40:21;105.55;;;100.35;;
40058;SDS011;25763;49.972;8.568;2022-07-04T08:42:48;79.78;;;75.82;;
40058;SDS011;25763;49.972;8.568;2022-07-04T08:45:15;85.70;;;81.47;;
40058;SDS011;25763;49.972;8.568;2022-07-04T08:47:42;89.60;;;85.07;;
40058;SDS011;25763;49.972;8.568;2022-07-04T08:50:10;79.57;;;75.65;;
40058;SDS011;25763;49.972;8.568;2022-07-04T08:52:38;93.15;;;88.60;;
40058;SDS011;25763;49.972;8.568;2022-07-04T08:55:11;73.40;;;69.78;;
40058;SDS011;25763;49.972;8.568;2022-07-04T08:57:56;69.72;;;66.30;;
40058;SDS011;25763;49.972;8.568;2022-07-04T09:00:42;66.05;;;62.80;;
40058;SDS011;25763;49.972;8.568;2022-07-04T09:03:08;71.10;;;67.57;;
40058;SDS011;25763;49.972;8.568;2022-07-04T09:05:34;75.65;;;71.85;;
40058;SDS011;25763;49.972;8.568;2022-07-04T09:08:00;61.13;;;58.08;;
40058;SDS011;25763;49.972;8.568;2022-07-04T09:10:27;72.15;;;68.47;;
40058;SDS011;25763;49.972;8.568;2022-07-04T09:12:52;56.53;;;53.70;;
40058;SDS011;25763;49.972;8.568;2022-07-04T09:15:18;73.25;;;69.63;;
40058;SDS011;25763;49.972;8.568;2022-07-04T09:17:43;67.78;;;64.38;;
40058;SDS011;25763;49.972;8.568;2022-07-04T09:22:42;60.38;;;57.38;;
40058;SDS011;25763;49.972;8.568;2022-07-04T09:25:08;70.32;;;66.85;;
40058;SDS011;25763;49.972;8.568;2022-07-04T09:27:38;83.65;;;79.47;;
40058;SDS011;25763;49.972;8.568;2022-07-04T09:30:12;66.35;;;63.05;;
40058;SDS011;25763;49.972;8.568;2022-07-04T09:32:49;70.65;;;67.13;;
40058;SDS011;25763;49.972;8.568;2022-07-04T09:35:23;69.22;;;65.75;;
40058;SDS011;25763;49.972;8.568;2022-07-04T09:37:51;73.40;;;69.78;;
40058;SDS011;25763;49.972;8.568;2022-07-04T09:40:22;53.15;;;50.50;;
40058;SDS011;25763;49.972;8.568;2022-07-04T09:42:49;59.97;;;56.97;;
40058;SDS011;25763;49.972;8.568;2022-07-04T09:45:15;60.10;;;57.10;;
40058;SDS011;25763;49.972;8.568;2022-07-04T09:47:41;60.28;;;57.28;;
40058;SDS011;25763;49.972;8.568;2022-07-04T09:50:14;58.70;;;55.78;;
40058;SDS011;25763;49.972;8.568;2022-07-04T09:52:54;65.05;;;61.85;;
40058;SDS011;25763;49.972;8.568;2022-07-04T09:55:23;60.30;;;57.25;;
40058;SDS011;25763;49.972;8.568;2022-07-04T09:57:59;62.35;;;59.25;;
40058;SDS011;25763;49.972;8.568;2022-07-04T10:00:27;59.28;;;56.33;;
40058;SDS011;25763;49.972;8.568;2022-07-04T10:02:57;54.65;;;51.90;;
40058;SDS011;25763;49.972;8.568;2022-07-04T10:05:40;50.42;;;47.88;;
40058;SDS011;25763;49.972;8.568;2022-07-04T10:08:06;60.55;;;57.53;;
40058;SDS011;25763;49.972;8.568;2022-07-04T10:12:59;58.65;;;55.65;;
40058;SDS011;25763;49.972;8.568;2022-07-04T10:15:27;58.88;;;55.95;;
40058;SDS011;25763;49.972;8.568;2022-07-04T10:17:53;50.05;;;47.45;;
40058;SDS011;25763;49.972;8.568;2022-07-04T10:20:18;53.00;;;50.33;;
40058;SDS011;25763;49.972;8.568;2022-07-04T10:22:44;59.25;;;56.25;;
40058;SDS011;25763;49.972;8.568;2022-07-04T10:25:10;53.38;;;50.67;;
40058;SDS011;25763;49.972;8.568;2022-07-04T10:27:36;54.33;;;51.60;;
40058;SDS011;25763;49.972;8.568;2022-07-04T10:30:04;56.20;;;53.38;;
40058;SDS011;25763;49.972;8.568;2022-07-04T10:32:31;59.30;;;56.33;;
40058;SDS011;25763;49.972;8.568;2022-07-04T10:34:58;69.88;;;66.38;;
40058;SDS011;25763;49.972;8.568;2022-07-04T10:37:23;70.50;;;67.00;;
40058;SDS011;25763;49.972;8.568;2022-07-04T10:39:48;80.95;;;76.95;;
40058;SDS011;25763;49.972;8.568;2022-07-04T10:42:21;66.90;;;63.60;;
40058;SDS011;25763;49.972;8.568;2022-07-04T10:44:51;68.75;;;65.35;;
40058;SDS011;25763;49.972;8.568;2022-07-04T10:47:21;76.53;;;72.72;;
40058;SDS011;25763;49.972;8.568;2022-07-04T10:49:52;73.25;;;69.57;;
40058;SDS011;25763;49.972;8.568;2022-07-04T10:52:18;61.10;;;58.00;;
40058;SDS011;25763;49.972;8.568;2022-07-04T10:54:44;58.65;;;55.75;;
40058;SDS011;25763;49.972;8.568;2022-07-04T10:59:36;56.08;;;53.28;;
40058;SDS011;25763;49.972;8.568;2022-07-04T11:07:17;57.65;;;54.75;;
40058;SDS011;25763;49.972;8.568;2022-07-04T11:09:43;53.92;;;51.22;;
40058;SDS011;25763;49.972;8.568;2022-07-04T11:12:10;50.42;;;47.90;;
40058;SDS011;25763;49.972;8.568;2022-07-04T11:17:14;51.75;;;49.15;;
40058;SDS011;25763;49.972;8.568;2022-07-04T11:19:51;59.38;;;56.38;;
40058;SDS011;25763;49.972;8.568;2022-07-04T11:22:25;77.43;;;73.60;;
40058;SDS011;25763;49.972;8.568;2022-07-04T11:24:50;66.50;;;63.20;;
40058;SDS011;25763;49.972;8.568;2022-07-04T11:27:16;68.60;;;65.20;;
40058;SDS011;25763;49.972;8.568;2022-07-04T11:29:54;73.75;;;70.10;;
40058;SDS011;25763;49.972;8.568;2022-07-04T11:32:20;60.05;;;57.05;;
40058;SDS011;25763;49.972;8.568;2022-07-04T11:34:46;50.65;;;48.10;;
40058;SDS011;25763;49.972;8.568;2022-07-04T11:37:13;66.07;;;62.78;;
40058;SDS011;25763;49.972;8.568;2022-07-04T11:39:40;52.03;;;49.42;;
40058;SDS011;25763;49.972;8.568;2022-07-04T11:42:05;50.17;;;47.67;;
40058;SDS011;25763;49.972;8.568;2022-07-04T11:44:49;44.78;;;42.47;;
40058;SDS011;25763;49.972;8.568;2022-07-04T11:50:03;44.70;;;42.40;;
40058;SDS011;25763;49.972;8.568;2022-07-04T11:52:48;44.78;;;42.50;;
40058;SDS011;25763;49.972;8.568;2022-07-04T11:55:19;42.58;;;40.40;;
40058;SDS011;25763;49.972;8.568;2022-07-04T11:57:48;41.90;;;39.78;;
40058;SDS011;25763;49.972;8.568;2022-07-04T12:00:24;29.85;;;28.30;;
40058;SDS011;25763;49.972;8.568;2022-07-04T12:02:51;37.17;;;35.28;;
40058;SDS011;25763;49.972;8.568;2022-07-04T12:05:17;40.95;;;38.85;;
40058;SDS011;25763;49.972;8.568;2022-07-04T12:07:45;19.10;;;18.08;;
40058;SDS011;25763;49.972;8.568;2022-07-04T12:10:14;25.60;;;24.20;;
40058;SDS011;25763;49.972;8.568;2022-07-04T12:15:20;17.10;;;16.17;;
40058;SDS011;25763;49.972;8.568;2022-07-04T12:17:51;17.38;;;16.40;;
40058;SDS011;25763;49.972;8.568;2022-07-04T12:20:19;16.45;;;15.55;;
40058;SDS011;25763;49.972;8.568;2022-07-04T12:22:50;21.27;;;20.13;;
40058;SDS011;25763;49.972;8.568;2022-07-04T12:25:28;32.80;;;31.08;;
40058;SDS011;25763;49.972;8.568;2022-07-04T12:30:53;37.33;;;35.42;;
40058;SDS011;25763;49.972;8.568;2022-07-04T12:33:23;37.00;;;35.05;;
40058;SDS011;25763;49.972;8.568;2022-07-04T12:35:50;43.55;;;41.33;;
40058;SDS011;25763;49.972;8.568;2022-07-04T12:40:59;63.65;;;60.45;;
40058;SDS011;25763;49.972;8.568;2022-07-04T12:43:47;74.68;;;70.97;;
40058;SDS011;25763;49.972;8.568;2022-07-04T12:48:49;72.68;;;69.10;;
40058;SDS011;25763;49.972;8.568;2022-07-04T12:51:19;87.43;;;83.13;;
40058;SDS011;25763;49.972;8.568;2022-07-04T12:53:47;94.05;;;89.43;;
40058;SDS011;25763;49.972;8.568;2022-07-04T12:56:27;95.18;;;90.47;;
40058;SDS011;25763;49.972;8.568;2022-07-04T12:58:54;90.50;;;86.05;;
40058;SDS011;25763;49.972;8.568;2022-07-04T13:01:19;80.60;;;76.60;;
40058;SDS011;25763;49.972;8.568;2022-07-04T13:03:45;56.08;;;53.28;;
40058;SDS011;25763;49.972;8.568;2022-07-04T13:06:10;48.45;;;46.05;;
40058;SDS011;25763;49.972;8.568;2022-07-04T13:08:35;30.02;;;28.45;;
40058;SDS011;25763;49.972;8.568;2022-07-04T13:11:01;24.17;;;22.73;;
40058;SDS011;25763;49.972;8.568;2022-07-04T13:13:45;46.85;;;44.47;;
40058;SDS011;25763;49.972;8.568;2022-07-04T13:16:10;47.47;;;45.08;;
40058;SDS011;25763;49.972;8.568;2022-07-04T13:18:36;24.05;;;22.75;;
40058;SDS011;25763;49.972;8.568;2022-07-04T13:21:01;28.60;;;27.10;;
40058;SDS011;25763;49.972;8.568;2022-07-04T13:23:26;21.02;;;19.92;;
40058;SDS011;25763;49.972;8.568;2022-07-04T13:25:52;20.10;;;19.00;;
40058;SDS011;25763;49.972;8.568;2022-07-04T13:28:17;21.00;;;19.85;;
40058;SDS011;25763;49.972;8.568;2022-07-04T13:30:42;15.77;;;14.88;;
40058;SDS011;25763;49.972;8.568;2022-07-04T13:33:08;15.95;;;15.05;;
40058;SDS011;25763;49.972;8.568;2022-07-04T13:35:33;20.90;;;19.60;;
40058;SDS011;25763;49.972;8.568;2022-07-04T13:37:59;24.13;;;22.83;;
40058;SDS011;25763;49.972;8.568;2022-07-04T13:40:24;26.05;;;24.65;;
40058;SDS011;25763;49.972;8.568;2022-07-04T13:42:49;32.80;;;31.08;;
40058;SDS011;25763;49.972;8.568;2022-07-04T13:45:23;44.75;;;42.50;;
40058;SDS011;25763;49.972;8.568;2022-07-04T13:47:51;48.00;;;45.60;;
40058;SDS011;25763;49.972;8.568;2022-07-04T13:50:16;34.13;;;32.10;;
40058;SDS011;25763;49.972;8.568;2022-07-04T13:52:42;26.23;;;24.83;;
40058;SDS011;25763;49.972;8.568;2022-07-04T13:55:08;36.05;;;34.22;;
40058;SDS011;25763;49.972;8.568;2022-07-04T13:57:33;29.52;;;28.02;;
40058;SDS011;25763;49.972;8.568;2022-07-04T14:00:00;40.92;;;38.83;;
40058;SDS011;25763;49.972;8.568;2022-07-04T14:02:25;47.28;;;44.88;;
40058;SDS011;25763;49.972;8.568;2022-07-04T14:04:51;39.97;;;37.95;;
40058;SDS011;25763;49.972;8.568;2022-07-04T14:07:16;44.95;;;42.65;;
40058;SDS011;25763;49.972;8.568;2022-07-04T14:09:42;53.42;;;50.72;;
40058;SDS011;25763;49.972;8.568;2022-07-04T14:12:07;52.90;;;50.25;;
40058;SDS011;25763;49.972;8.568;2022-07-04T14:14:33;52.95;;;50.30;;
40058;SDS011;25763;49.972;8.568;2022-07-04T14:16:59;53.53;;;50.83;;
40058;SDS011;25763;49.972;8.568;2022-07-04T14:19:25;50.13;;;47.58;;
40058;SDS011;25763;49.972;8.568;2022-07-04T14:21:50;58.58;;;55.65;;
40058;SDS011;25763;49.972;8.568;2022-07-04T14:24:16;56.53;;;53.72;;
40058;SDS011;25763;49.972;8.568;2022-07-04T14:26:42;62.92;;;59.78;;
40058;SDS011;25763;49.972;8.568;2022-07-04T14:29:08;61.42;;;58.33;;
40058;SDS011;25763;49.972;8.568;2022-07-04T14:31:33;59.53;;;56.55;;
40058;SDS011;25763;49.972;8.568;2022-07-04T14:33:58;59.20;;;56.20;;
40058;SDS011;25763;49.972;8.568;2022-07-04T14:36:24;62.10;;;59.00;;
40058;SDS011;25763;49.972;8.568;2022-07-04T14:38:49;53.40;;;50.70;;
40058;SDS011;25763;49.972;8.568;2022-07-04T14:41:14;57.47;;;54.60;;
40058;SDS011;25763;49.972;8.568;2022-07-04T14:43:41;48.90;;;46.45;;
40058;SDS011;25763;49.972;8.568;2022-07-04T14:46:08;66.07;;;62.78;;
40058;SDS011;25763;49.972;8.568;2022-07-04T14:48:34;47.90;;;45.50;;
40058;SDS011;25763;49.972;8.568;2022-07-04T14:51:00;30.40;;;28.83;;